Time;durP1;ratioP1;P1;durP2;ratioP2;P2;SDS_P1;SDS_P2;PMS_P1;PMS_P2;Temp;Humidity;BMP_temperature;BMP_pressure;BME280_temperature;BME280_humidity;BME280_pressure;Samples;Min_cycle;Max_cycle;Signal;HPM_P1;HPM_P2
2022/11/29 00:01:33;;;;;;;17.47;13.43;;;10.10;99.90;;;;;;5108376;27;20557;-33
2022/11/29 00:03:59;;;;;;;18.20;12.07;;;10.10;99.90;;;;;;5098282;27;20426;-34
2022/11/29 00:06:30;;;;;;;15.63;11.50;;;10.10;99.90;;;;;;5089990;28;20442;-33
2022/11/29 00:08:59;;;;;;;15.50;12.10;;;10.10;99.90;;;;;;5089817;28;20430;-33
2022/11/29 00:14:17;;;;;;;15.10;10.97;;;10.10;99.90;;;;;;5107491;27;20936;-37
2022/11/29 00:16:43;;;;;;;15.00;11.60;;;10.10;99.90;;;;;;5103577;27;20936;-35
2022/11/29 00:19:11;;;;;;;13.33;10.83;;;10.00;99.90;;;;;;5088136;28;20448;-35
2022/11/29 00:21:36;;;;;;;13.60;10.87;;;10.10;99.90;;;;;;5089687;28;20188;-33
2022/11/29 00:24:02;;;;;;;12.67;10.20;;;10.00;99.90;;;;;;5098812;28;20437;-33
2022/11/29 00:26:28;;;;;;;13.83;10.43;;;10.00;99.90;;;;;;5092765;28;20189;-35
2022/11/29 00:28:53;;;;;;;13.10;9.93;;;10.00;99.90;;;;;;5089320;28;20349;-36
2022/11/29 00:31:25;;;;;;;9.87;8.83;;;10.00;99.90;;;;;;5089167;28;20313;-33
2022/11/29 00:33:52;;;;;;;12.00;10.50;;;10.00;99.90;;;;;;5088117;28;20469;-35
2022/11/29 00:36:18;;;;;;;11.03;8.80;;;10.00;99.90;;;;;;5089434;28;20509;-32
2022/11/29 00:38:43;;;;;;;10.50;8.80;;;10.00;99.90;;;;;;5088900;28;20442;-36
2022/11/29 00:41:09;;;;;;;10.60;8.97;;;10.00;99.90;;;;;;5094326;28;20485;-35
2022/11/29 00:43:35;;;;;;;10.77;8.87;;;10.10;99.90;;;;;;5109627;28;20195;-38
2022/11/29 00:46:01;;;;;;;9.50;8.27;;;10.10;99.90;;;;;;5109675;28;20424;-37
2022/11/29 00:48:27;;;;;;;9.20;8.20;;;10.00;99.90;;;;;;5109380;28;20194;-32
2022/11/29 00:50:53;;;;;;;10.07;8.23;;;10.00;99.90;;;;;;5109249;28;20421;-33
2022/11/29 00:53:18;;;;;;;9.30;7.90;;;10.00;99.90;;;;;;5109123;28;21059;-36
2022/11/29 00:55:47;;;;;;;7.90;7.10;;;10.00;99.90;;;;;;5109565;28;20298;-36
2022/11/29 00:58:12;;;;;;;8.80;7.60;;;10.00;99.90;;;;;;5109671;27;20229;-35
2022/11/29 01:00:38;;;;;;;8.40;7.27;;;10.00;99.90;;;;;;5108954;28;20907;-35
2022/11/29 01:03:04;;;;;;;9.03;7.23;;;10.00;99.90;;;;;;5109135;28;20677;-37
2022/11/29 01:05:31;;;;;;;9.77;8.30;;;10.00;99.90;;;;;;5109027;28;20215;-37
2022/11/29 01:07:56;;;;;;;11.37;8.53;;;10.00;99.90;;;;;;5097404;28;20196;-37
2022/11/29 01:10:22;;;;;;;9.83;8.70;;;10.00;99.90;;;;;;5088623;28;20634;-35
2022/11/29 01:12:48;;;;;;;11.40;9.30;;;10.00;99.90;;;;;;5088748;28;20255;-37
2022/11/29 01:15:14;;;;;;;16.00;10.90;;;10.10;99.90;;;;;;5089094;28;20177;-33
2022/11/29 01:17:40;;;;;;;15.03;11.13;;;10.10;99.90;;;;;;5126353;27;20183;-37
2022/11/29 01:20:09;;;;;;;14.57;9.93;;;10.00;99.90;;;;;;5129571;27;20800;-35
2022/11/29 01:22:35;;;;;;;15.97;10.80;;;10.00;99.90;;;;;;5127819;27;20217;-37
2022/11/29 01:25:01;;;;;;;17.77;12.43;;;10.00;99.90;;;;;;5111492;27;20822;-35
2022/11/29 01:27:28;;;;;;;17.13;11.67;;;10.00;99.90;;;;;;5108816;28;20460;-35
2022/11/29 01:29:53;;;;;;;17.73;12.60;;;10.00;99.90;;;;;;5108830;28;20183;-33
2022/11/29 01:32:19;;;;;;;15.83;12.23;;;10.10;99.90;;;;;;5108620;28;20520;-35
2022/11/29 01:34:45;;;;;;;14.90;11.33;;;10.10;99.90;;;;;;5107683;28;20186;-35
2022/11/29 01:37:11;;;;;;;15.93;10.60;;;10.00;99.90;;;;;;5108724;28;20182;-35
2022/11/29 01:39:36;;;;;;;13.40;10.30;;;10.10;99.90;;;;;;5108631;28;20642;-38
2022/11/29 01:42:02;;;;;;;13.10;10.13;;;10.10;99.90;;;;;;5107957;28;20543;-36
2022/11/29 01:44:28;;;;;;;12.60;9.80;;;10.10;99.90;;;;;;5108620;28;20322;-35
2022/11/29 01:46:55;;;;;;;10.40;8.13;;;10.10;99.90;;;;;;5108826;28;20452;-33
2022/11/29 01:49:27;;;;;;;12.40;8.60;;;10.10;99.90;;;;;;5107805;28;20176;-33
2022/11/29 01:52:19;;;;;;;10.70;7.97;;;10.10;99.90;;;;;;5108836;28;20492;-36
2022/11/29 01:54:49;;;;;;;10.60;8.43;;;10.10;99.90;;;;;;5105056;28;20482;-35
2022/11/29 01:57:15;;;;;;;9.47;7.73;;;10.10;99.90;;;;;;5107586;28;20951;-36
2022/11/29 01:59:46;;;;;;;8.70;6.87;;;10.00;99.90;;;;;;5108031;28;20413;-36
2022/11/29 02:02:19;;;;;;;10.20;8.07;;;10.00;99.90;;;;;;5108438;28;20408;-31
2022/11/29 02:04:46;;;;;;;9.60;7.70;;;10.10;99.90;;;;;;5108210;28;20425;-36
2022/11/29 02:07:12;;;;;;;12.30;9.00;;;10.10;99.90;;;;;;5108521;28;20408;-32
2022/11/29 02:09:37;;;;;;;14.20;10.60;;;10.10;99.90;;;;;;5108026;28;20418;-34
2022/11/29 02:12:21;;;;;;;19.40;11.90;;;10.10;99.90;;;;;;5108389;28;20920;-37
2022/11/29 02:15:06;;;;;;;25.77;14.20;;;10.10;99.90;;;;;;5108196;28;20199;-33
2022/11/29 02:18:01;;;;;;;30.00;14.30;;;10.10;99.90;;;;;;5125862;27;20473;-32
2022/11/29 02:20:51;;;;;;;28.20;14.90;;;10.10;99.90;;;;;;5128101;27;20407;-33
2022/11/29 02:23:17;;;;;;;28.63;16.37;;;10.00;99.90;;;;;;5125023;27;20974;-35
2022/11/29 02:25:56;;;;;;;31.47;16.70;;;10.10;99.90;;;;;;5108395;28;20409;-32
2022/11/29 02:28:52;;;;;;;25.57;14.23;;;10.00;99.90;;;;;;5108175;28;20174;-35
2022/11/29 02:31:39;;;;;;;22.97;14.70;;;10.00;99.90;;;;;;5108036;28;20410;-35
2022/11/29 02:34:08;;;;;;;24.37;14.63;;;10.00;99.90;;;;;;5107301;28;20572;-35
2022/11/29 02:36:39;;;;;;;32.80;14.60;;;10.00;99.90;;;;;;5106429;28;20940;-35
2022/11/29 02:39:05;;;;;;;24.40;13.83;;;10.10;99.90;;;;;;5107849;28;20544;-32
2022/11/29 02:41:39;;;;;;;27.00;14.63;;;10.00;99.90;;;;;;5106079;28;20405;-32
2022/11/29 02:44:21;;;;;;;33.97;13.83;;;10.00;99.90;;;;;;5106343;28;20270;-34
2022/11/29 02:46:50;;;;;;;23.27;13.20;;;10.00;99.90;;;;;;5108212;28;20486;-34
2022/11/29 02:49:34;;;;;;;22.90;13.63;;;10.00;99.90;;;;;;5108028;28;20445;-35
2022/11/29 02:52:01;;;;;;;20.53;12.97;;;10.00;99.90;;;;;;5107803;28;20439;-37
2022/11/29 02:54:36;;;;;;;19.50;12.03;;;10.00;99.90;;;;;;5109472;28;20911;-38
2022/11/29 02:57:13;;;;;;;19.63;12.60;;;10.00;99.90;;;;;;5112076;28;20783;-35
2022/11/29 03:00:02;;;;;;;21.30;13.33;;;10.00;99.90;;;;;;5111685;28;20436;-37
2022/11/29 03:02:31;;;;;;;20.53;12.87;;;10.00;99.90;;;;;;5111721;28;20421;-34
2022/11/29 03:05:19;;;;;;;23.37;12.83;;;10.00;99.90;;;;;;5111891;28;20433;-35
2022/11/29 03:08:10;;;;;;;26.80;14.63;;;10.00;99.90;;;;;;5111718;28;20433;-32
2022/11/29 03:11:05;;;;;;;20.90;13.67;;;10.00;99.90;;;;;;5111300;28;20482;-37
2022/11/29 03:13:40;;;;;;;27.10;13.90;;;10.00;99.90;;;;;;5111379;28;20926;-32
2022/11/29 03:16:25;;;;;;;21.37;13.80;;;10.00;99.90;;;;;;5117300;27;20407;-38
2022/11/29 03:18:57;;;;;;;24.10;12.50;;;10.00;99.90;;;;;;5123723;27;20507;-32
2022/11/29 03:21:54;;;;;;;17.60;11.80;;;10.00;99.90;;;;;;5132235;27;20409;-35
2022/11/29 03:24:48;;;;;;;24.90;14.17;;;10.00;99.90;;;;;;5119322;27;20428;-33
2022/11/29 03:27:25;;;;;;;22.60;13.30;;;10.00;99.90;;;;;;5103367;28;20422;-36
2022/11/29 03:29:59;;;;;;;21.73;13.47;;;10.00;99.90;;;;;;5111018;27;20418;-33
2022/11/29 03:32:38;;;;;;;21.40;12.50;;;10.00;99.90;;;;;;5111000;27;20423;-35
2022/11/29 03:35:21;;;;;;;19.90;12.73;;;10.00;99.90;;;;;;5110496;28;20412;-35
2022/11/29 03:38:19;;;;;;;18.70;11.57;;;10.00;99.90;;;;;;5111051;28;20397;-36
2022/11/29 03:41:12;;;;;;;22.03;12.33;;;10.00;99.90;;;;;;5110777;28;20452;-33
2022/11/29 03:44:08;;;;;;;21.53;12.23;;;10.00;99.90;;;;;;5110899;28;20409;-35
2022/11/29 03:46:36;;;;;;;19.33;12.43;;;10.00;99.90;;;;;;5111118;28;20448;-35
2022/11/29 03:49:12;;;;;;;19.07;11.80;;;10.00;99.90;;;;;;5110693;28;20410;-35
2022/11/29 03:51:50;;;;;;;23.67;12.80;;;10.00;99.90;;;;;;5111158;28;20503;-34
2022/11/29 03:54:23;;;;;;;19.60;11.70;;;10.00;99.90;;;;;;5110799;28;20452;-34
2022/11/29 03:56:48;;;;;;;19.50;10.57;;;10.00;99.90;;;;;;5111073;28;20418;-34
2022/11/29 03:59:29;;;;;;;19.37;11.03;;;10.00;99.90;;;;;;5110487;28;20984;-32
2022/11/29 04:02:03;;;;;;;15.27;10.13;;;10.00;99.90;;;;;;5110785;28;20196;-35
2022/11/29 04:04:58;;;;;;;17.33;10.70;;;10.00;99.90;;;;;;5110315;28;20900;-32
2022/11/29 04:07:42;;;;;;;16.70;9.77;;;10.00;99.90;;;;;;5110369;28;20456;-32
2022/11/29 04:10:26;;;;;;;16.80;9.90;;;10.00;99.90;;;;;;5110644;28;20423;-36
2022/11/29 04:13:29;;;;;;;15.27;9.37;;;10.00;99.90;;;;;;5110041;28;20457;-36
2022/11/29 04:16:19;;;;;;;13.20;7.90;;;10.00;99.90;;;;;;5114371;27;20408;-33
2022/11/29 04:19:02;;;;;;;15.87;9.30;;;10.00;99.90;;;;;;5130632;27;20412;-32
2022/11/29 04:21:48;;;;;;;15.90;8.30;;;10.00;99.90;;;;;;5130650;27;20462;-33
2022/11/29 04:24:51;;;;;;;13.70;8.40;;;10.00;99.90;;;;;;5119363;27;20424;-32
2022/11/29 04:27:19;;;;;;;16.43;8.57;;;10.00;99.90;;;;;;5110207;28;20498;-32
2022/11/29 04:30:00;;;;;;;15.40;9.57;;;9.90;99.90;;;;;;5110150;28;20414;-33
2022/11/29 04:32:31;;;;;;;16.10;9.60;;;10.00;99.90;;;;;;5110023;28;20416;-33
2022/11/29 04:35:18;;;;;;;17.77;9.83;;;10.00;99.90;;;;;;5109163;28;20409;-39
2022/11/29 04:38:05;;;;;;;19.03;9.50;;;9.70;99.90;;;;;;5110031;28;20465;-36
2022/11/29 04:40:43;;;;;;;16.70;8.90;;;9.90;99.90;;;;;;5110150;28;20408;-33
2022/11/29 04:43:42;;;;;;;13.83;9.00;;;9.90;99.90;;;;;;5108250;28;20420;-37
2022/11/29 04:46:54;;;;;;;16.57;9.30;;;9.90;99.90;;;;;;5109991;28;20879;-32
2022/11/29 04:49:55;;;;;;;14.90;9.50;;;9.90;99.90;;;;;;5089155;28;21011;-33
2022/11/29 04:52:38;;;;;;;28.33;13.07;;;10.10;99.90;;;;;;5089147;28;20422;-32
2022/11/29 04:55:52;;;;;;;23.37;12.00;;;9.90;99.90;;;;;;5089344;28;20510;-34
2022/11/29 04:58:37;;;;;;;24.63;12.50;;;9.90;99.90;;;;;;5089176;28;20425;-31
2022/11/29 05:01:24;;;;;;;28.10;15.40;;;9.90;99.90;;;;;;5089511;28;20406;-36
2022/11/29 05:03:59;;;;;;;26.63;14.60;;;9.90;99.90;;;;;;5088913;28;20769;-34
2022/11/29 05:06:56;;;;;;;33.63;15.47;;;9.80;99.90;;;;;;5089057;28;20881;-34
2022/11/29 05:09:32;;;;;;;28.90;14.47;;;9.90;99.90;;;;;;5088946;28;20842;-34
2022/11/29 05:12:13;;;;;;;29.20;14.20;;;9.90;99.90;;;;;;5089169;28;20430;-37
2022/11/29 05:15:09;;;;;;;33.83;14.70;;;10.00;99.90;;;;;;5088609;28;20496;-32
2022/11/29 05:17:49;;;;;;;29.33;16.33;;;9.90;99.90;;;;;;5124545;27;20428;-35
2022/11/29 05:20:32;;;;;;;34.17;17.57;;;9.90;99.90;;;;;;5129406;27;20412;-35
2022/11/29 05:23:16;;;;;;;30.70;15.87;;;9.90;99.90;;;;;;5128795;27;20409;-35
2022/11/29 05:26:00;;;;;;;30.83;16.47;;;9.90;99.90;;;;;;5109109;28;20509;-35
2022/11/29 05:29:09;;;;;;;25.33;15.70;;;9.90;99.90;;;;;;5107532;28;20493;-32
2022/11/29 05:31:52;;;;;;;32.97;15.73;;;9.90;99.90;;;;;;5108659;28;20767;-36
2022/11/29 05:34:21;;;;;;;34.40;17.20;;;9.80;99.90;;;;;;5107535;28;20865;-33
2022/11/29 05:36:59;;;;;;;29.17;16.83;;;9.80;99.90;;;;;;5108790;28;20899;-35
2022/11/29 05:39:36;;;;;;;30.10;17.80;;;9.90;99.90;;;;;;5108995;28;20409;-36
2022/11/29 05:42:19;;;;;;;28.23;16.67;;;9.80;99.90;;;;;;5108780;28;20416;-33
2022/11/29 05:44:53;;;;;;;32.70;17.33;;;9.80;99.90;;;;;;5107024;28;20494;-30
2022/11/29 05:47:31;;;;;;;33.97;17.80;;;9.80;99.90;;;;;;5108999;28;20412;-35
2022/11/29 05:50:08;;;;;;;34.03;17.40;;;9.80;99.90;;;;;;5108615;27;20406;-30
2022/11/29 05:52:40;;;;;;;38.30;18.67;;;10.00;99.90;;;;;;5100781;28;20433;-34
2022/11/29 05:55:16;;;;;;;28.50;16.97;;;9.90;99.90;;;;;;5106501;28;20449;-32
2022/11/29 05:57:46;;;;;;;33.00;19.17;;;9.70;99.90;;;;;;5108027;28;20409;-32
2022/11/29 06:00:13;;;;;;;30.00;18.63;;;9.70;99.90;;;;;;5106969;28;20500;-33
2022/11/29 06:02:45;;;;;;;36.13;19.47;;;9.70;99.90;;;;;;5107953;28;20421;-35
2022/11/29 06:05:29;;;;;;;32.50;18.40;;;9.70;99.90;;;;;;5107132;28;20805;-33
2022/11/29 06:08:07;;;;;;;32.23;18.87;;;9.70;99.90;;;;;;5108269;28;20478;-35
2022/11/29 06:10:39;;;;;;;32.57;18.60;;;9.70;99.90;;;;;;5108348;28;20823;-35
2022/11/29 06:13:10;;;;;;;35.30;18.57;;;9.70;99.90;;;;;;5108168;28;20953;-38
2022/11/29 06:15:47;;;;;;;35.23;19.87;;;9.70;99.90;;;;;;5106501;28;20417;-34
2022/11/29 06:18:22;;;;;;;38.40;21.50;;;9.70;99.90;;;;;;5097816;28;20412;-36
2022/11/29 06:20:59;;;;;;;31.83;18.50;;;9.70;99.90;;;;;;5106388;28;20820;-35
2022/11/29 06:23:53;;;;;;;32.23;17.57;;;9.70;99.90;;;;;;5107858;28;20901;-31
2022/11/29 06:26:33;;;;;;;32.27;18.13;;;9.70;99.90;;;;;;5108175;28;20882;-35
2022/11/29 06:29:22;;;;;;;36.40;17.80;;;9.70;99.90;;;;;;5111124;28;20527;-31
2022/11/29 06:32:07;;;;;;;30.10;16.50;;;9.90;99.90;;;;;;5115558;27;20409;-37
2022/11/29 06:34:47;;;;;;;37.23;18.90;;;9.70;99.90;;;;;;5106327;27;20481;-35
2022/11/29 06:37:15;;;;;;;30.00;16.70;;;9.70;99.90;;;;;;5094752;28;20436;-34
2022/11/29 06:39:41;;;;;;;29.57;17.07;;;9.70;99.90;;;;;;5094160;28;20459;-34
2022/11/29 06:42:07;;;;;;;35.07;17.70;;;9.70;99.90;;;;;;5094562;28;20414;-35
2022/11/29 06:44:33;;;;;;;35.00;17.27;;;9.50;99.90;;;;;;5094056;28;20422;-32
2022/11/29 06:47:07;;;;;;;32.67;16.17;;;9.70;99.90;;;;;;5094525;28;20259;-34
2022/11/29 06:50:01;;;;;;;30.97;17.13;;;9.60;99.90;;;;;;5094323;28;20414;-34
2022/11/29 06:52:45;;;;;;;26.20;16.60;;;9.60;99.90;;;;;;5092616;28;20406;-35
2022/11/29 06:55:28;;;;;;;36.43;16.77;;;9.60;99.90;;;;;;5094410;28;20406;-34
2022/11/29 06:58:17;;;;;;;31.90;15.87;;;9.60;99.90;;;;;;5099727;28;20413;-35
2022/11/29 07:01:16;;;;;;;30.63;14.77;;;9.60;99.90;;;;;;5114529;27;20741;-31
2022/11/29 07:03:48;;;;;;;47.23;18.20;;;9.60;99.90;;;;;;5111531;27;20982;-32
2022/11/29 07:06:23;;;;;;;32.87;16.50;;;9.60;99.90;;;;;;5124675;27;20464;-32
2022/11/29 07:08:55;;;;;;;33.53;18.80;;;9.60;99.90;;;;;;5124407;27;20462;-32
2022/11/29 07:11:21;;;;;;;30.23;17.27;;;9.60;99.90;;;;;;5109961;28;20424;-35
2022/11/29 07:13:47;;;;;;;36.20;18.77;;;9.60;99.90;;;;;;5109729;27;20461;-36
2022/11/29 07:16:49;;;;;;;34.13;19.10;;;9.60;99.90;;;;;;5104388;27;20494;-34
2022/11/29 07:19:46;;;;;;;41.47;17.30;;;9.50;99.90;;;;;;5107691;28;20527;-35
2022/11/29 07:22:40;;;;;;;36.53;17.97;;;9.50;99.90;;;;;;5108279;27;20422;-33
2022/11/29 07:25:16;;;;;;;36.73;18.03;;;9.50;99.90;;;;;;5104724;28;20513;-34
2022/11/29 07:28:11;;;;;;;33.37;18.97;;;9.70;99.90;;;;;;5102030;27;20496;-32
2022/11/29 07:30:45;;;;;;;34.73;17.57;;;9.50;99.90;;;;;;5095132;28;20453;-38
2022/11/29 07:33:11;;;;;;;35.20;19.13;;;9.80;99.90;;;;;;5109832;28;20501;-35
2022/11/29 07:35:39;;;;;;;31.53;17.60;;;9.50;99.90;;;;;;5114461;27;20418;-33
2022/11/29 07:38:20;;;;;;;36.10;18.20;;;9.50;99.90;;;;;;5114223;27;20236;-32
2022/11/29 07:41:07;;;;;;;35.43;17.70;;;9.50;99.90;;;;;;5111126;27;20406;-34
2022/11/29 07:44:11;;;;;;;34.07;18.17;;;9.50;99.90;;;;;;5110473;28;20473;-34
2022/11/29 07:46:37;;;;;;;30.63;16.77;;;9.50;99.90;;;;;;5111422;28;20441;-34
2022/11/29 07:49:03;;;;;;;31.67;17.40;;;9.50;99.90;;;;;;5110545;28;20453;-34
2022/11/29 07:51:31;;;;;;;32.90;17.03;;;9.50;99.90;;;;;;5111117;28;20184;-34
2022/11/29 07:53:57;;;;;;;33.53;17.33;;;9.50;99.90;;;;;;5110264;28;20462;-32
2022/11/29 07:56:22;;;;;;;36.13;18.43;;;9.50;99.90;;;;;;5111107;28;20665;-32
2022/11/29 07:58:48;;;;;;;36.00;18.60;;;9.40;99.90;;;;;;5110577;28;20597;-36
2022/11/29 08:01:14;;;;;;;32.70;17.70;;;9.40;99.90;;;;;;5106595;28;20188;-31
2022/11/29 08:03:41;;;;;;;37.23;17.53;;;9.50;99.90;;;;;;5090154;28;20176;-35
2022/11/29 08:06:06;;;;;;;32.27;18.40;;;9.40;99.90;;;;;;5089047;28;20577;-31
2022/11/29 08:08:32;;;;;;;37.23;18.07;;;9.40;99.90;;;;;;5089658;28;20422;-36
2022/11/29 08:10:59;;;;;;;35.60;18.93;;;9.40;99.90;;;;;;5090530;28;20252;-34
2022/11/29 08:13:24;;;;;;;33.17;18.93;;;9.70;99.90;;;;;;5089914;28;20212;-31
2022/11/29 08:15:50;;;;;;;38.53;18.00;;;9.50;99.90;;;;;;5096512;27;20417;-36
2022/11/29 08:18:16;;;;;;;32.00;17.73;;;9.60;99.90;;;;;;5124359;27;20210;-33
2022/11/29 08:20:42;;;;;;;34.97;18.50;;;9.40;99.90;;;;;;5110113;28;20593;-32
2022/11/29 08:23:11;;;;;;;36.20;18.73;;;9.40;99.90;;;;;;5109931;28;20413;-36
2022/11/29 08:25:37;;;;;;;38.30;17.37;;;9.40;99.90;;;;;;5110461;28;20219;-35
2022/11/29 08:28:04;;;;;;;40.60;18.07;;;9.50;99.90;;;;;;5110197;28;20417;-33
2022/11/29 08:30:30;;;;;;;32.30;16.60;;;9.50;99.90;;;;;;5110005;28;20789;-36
2022/11/29 08:32:56;;;;;;;38.57;18.27;;;9.60;99.90;;;;;;5109563;28;20465;-31
2022/11/29 08:35:22;;;;;;;31.07;17.37;;;9.50;99.90;;;;;;5108823;28;20409;-34
2022/11/29 08:37:49;;;;;;;33.10;18.07;;;9.50;99.90;;;;;;5109095;28;20198;-34
2022/11/29 08:40:15;;;;;;;31.03;17.00;;;9.50;99.90;;;;;;5109822;27;20418;-35
2022/11/29 08:42:41;;;;;;;32.90;17.80;;;9.50;99.90;;;;;;5109693;28;20509;-35
2022/11/29 08:45:08;;;;;;;33.53;17.77;;;9.40;99.90;;;;;;5110471;28;20500;-34
2022/11/29 08:47:36;;;;;;;34.17;18.07;;;9.60;99.90;;;;;;5109848;28;20232;-35
2022/11/29 08:50:14;;;;;;;28.87;17.50;;;9.60;99.90;;;;;;5110130;28;20448;-36
2022/11/29 08:55:39;;;;;;;32.63;18.20;;;9.50;99.90;;;;;;5109905;28;20421;-32
2022/11/29 08:58:12;;;;;;;33.90;19.67;;;9.50;99.90;;;;;;5109944;28;20409;-31
2022/11/29 09:00:38;;;;;;;43.40;20.10;;;9.50;99.90;;;;;;5109201;28;20418;-32
2022/11/29 09:05:50;;;;;;;41.67;19.93;;;9.70;99.90;;;;;;5109720;28;20440;-34
2022/11/29 09:08:15;;;;;;;37.97;21.10;;;9.60;99.90;;;;;;5109613;28;20426;-34
2022/11/29 09:10:41;;;;;;;43.20;22.17;;;9.60;99.90;;;;;;5108920;28;20187;-37
2022/11/29 09:13:09;;;;;;;38.80;19.53;;;9.60;99.90;;;;;;5108917;28;20196;-36
2022/11/29 09:15:36;;;;;;;32.50;18.30;;;9.50;99.90;;;;;;5110534;27;20717;-33
2022/11/29 09:18:04;;;;;;;32.77;18.63;;;9.60;99.90;;;;;;5129764;27;20509;-35
2022/11/29 09:20:29;;;;;;;37.13;17.93;;;9.60;99.90;;;;;;5129292;27;20420;-32
2022/11/29 09:22:57;;;;;;;32.67;18.40;;;9.80;99.90;;;;;;5129143;27;20429;-32
2022/11/29 09:25:23;;;;;;;40.47;19.00;;;9.60;99.90;;;;;;5109233;28;20414;-35
2022/11/29 09:27:48;;;;;;;34.87;18.17;;;9.60;99.90;;;;;;5108902;28;20417;-34
2022/11/29 09:30:14;;;;;;;34.17;17.20;;;9.60;99.90;;;;;;5108843;28;20642;-33
2022/11/29 09:32:39;;;;;;;34.60;16.97;;;9.60;99.90;;;;;;5108732;28;20184;-32
2022/11/29 09:35:05;;;;;;;37.47;18.30;;;9.70;99.90;;;;;;5107427;28;20192;-31
2022/11/29 09:37:31;;;;;;;38.33;19.20;;;9.70;99.90;;;;;;5108799;28;20229;-34
2022/11/29 09:39:57;;;;;;;36.20;16.30;;;9.70;99.90;;;;;;5108544;28;20406;-35
2022/11/29 09:42:46;;;;;;;34.03;16.80;;;9.70;99.90;;;;;;5108553;28;20665;-32
2022/11/29 09:45:29;;;;;;;32.67;16.20;;;9.70;99.90;;;;;;5109239;28;20567;-32
2022/11/29 09:48:44;;;;;;;34.93;16.37;;;9.70;99.90;;;;;;5107169;28;20951;-33
2022/11/29 09:51:30;;;;;;;28.03;16.20;;;9.70;99.90;;;;;;5105147;28;20934;-31
2022/11/29 09:54:22;;;;;;;27.47;15.27;;;9.90;99.90;;;;;;5108552;28;20804;-32
2022/11/29 09:56:51;;;;;;;29.83;16.53;;;9.70;99.90;;;;;;5091566;28;20421;-32
2022/11/29 09:59:26;;;;;;;32.37;15.13;;;9.80;99.90;;;;;;5108572;28;20859;-32
2022/11/29 10:02:29;;;;;;;28.70;15.27;;;9.70;99.90;;;;;;5108399;28;20826;-34
2022/11/29 10:05:02;;;;;;;34.97;17.10;;;9.70;99.90;;;;;;5107736;28;20449;-36
2022/11/29 10:07:33;;;;;;;31.87;17.10;;;9.80;99.90;;;;;;5108212;28;20435;-30
2022/11/29 10:10:03;;;;;;;33.73;18.40;;;9.80;99.90;;;;;;5108094;28;20935;-37
2022/11/29 10:12:47;;;;;;;31.23;16.77;;;9.70;99.90;;;;;;5107977;28;20402;-37
2022/11/29 10:15:24;;;;;;;32.97;15.70;;;9.70;99.90;;;;;;5108569;28;20417;-32
2022/11/29 10:17:53;;;;;;;33.87;17.17;;;9.70;99.90;;;;;;5127988;27;20456;-34
2022/11/29 10:20:23;;;;;;;40.30;15.77;;;9.70;99.90;;;;;;5128992;27;20843;-34
2022/11/29 10:23:10;;;;;;;35.17;15.43;;;9.90;99.90;;;;;;5126936;27;20415;-35
2022/11/29 10:25:47;;;;;;;31.17;15.47;;;9.70;99.90;;;;;;5088045;28;20766;-34
2022/11/29 10:28:16;;;;;;;39.90;15.67;;;9.70;99.90;;;;;;5086381;28;20406;-33
2022/11/29 10:30:43;;;;;;;36.00;15.70;;;9.70;99.90;;;;;;5086258;28;20418;-32
2022/11/29 10:33:27;;;;;;;36.40;15.53;;;9.90;99.90;;;;;;5086113;28;20493;-37
2022/11/29 10:35:59;;;;;;;33.47;13.97;;;9.60;99.90;;;;;;5087830;28;21091;-36
2022/11/29 10:38:25;;;;;;;28.43;14.07;;;9.60;99.90;;;;;;5085821;28;20920;-35
2022/11/29 10:41:03;;;;;;;40.23;15.67;;;9.80;99.90;;;;;;5087744;28;20414;-33
2022/11/29 10:43:29;;;;;;;30.70;15.37;;;9.70;99.90;;;;;;5086277;28;20410;-30
2022/11/29 10:45:55;;;;;;;33.73;15.60;;;9.70;99.90;;;;;;5087726;28;20410;-32
2022/11/29 10:48:31;;;;;;;35.73;15.87;;;9.70;99.90;;;;;;5087801;28;20183;-37
2022/11/29 10:50:57;;;;;;;39.30;16.33;;;9.70;99.90;;;;;;5087430;28;20437;-35
2022/11/29 10:53:30;;;;;;;39.27;17.37;;;9.70;99.90;;;;;;5087684;28;20802;-31
2022/11/29 10:56:29;;;;;;;32.37;16.10;;;9.70;99.90;;;;;;5087618;28;20406;-35
2022/11/29 10:59:07;;;;;;;33.90;16.27;;;9.70;99.90;;;;;;5087397;28;20469;-30
2022/11/29 11:01:39;;;;;;;42.03;19.73;;;9.80;99.90;;;;;;5087304;28;20825;-31
2022/11/29 11:04:08;;;;;;;32.87;17.47;;;9.80;99.90;;;;;;5087367;28;20410;-32
2022/11/29 11:06:51;;;;;;;34.30;17.47;;;9.80;99.90;;;;;;5087382;28;20438;-37
2022/11/29 11:09:39;;;;;;;36.70;18.40;;;9.70;99.90;;;;;;5087198;28;20414;-34
2022/11/29 11:12:13;;;;;;;37.03;18.60;;;9.80;99.90;;;;;;5087506;28;20425;-29
2022/11/29 11:14:39;;;;;;;35.50;16.40;;;9.90;99.90;;;;;;5087954;28;20545;-34
2022/11/29 11:17:31;;;;;;;42.60;19.63;;;9.80;99.90;;;;;;5118830;27;20416;-35
2022/11/29 11:20:04;;;;;;;40.53;19.80;;;9.80;99.90;;;;;;5131867;27;20451;-33
2022/11/29 11:22:32;;;;;;;43.47;21.23;;;9.80;99.90;;;;;;5131980;27;20465;-32
2022/11/29 11:25:24;;;;;;;53.07;24.73;;;9.80;99.90;;;;;;5114516;27;20779;-34
2022/11/29 11:27:50;;;;;;;44.53;22.37;;;10.00;99.90;;;;;;5111631;27;20413;-30
2022/11/29 11:30:24;;;;;;;47.07;22.53;;;9.70;99.90;;;;;;5111075;27;20418;-36
2022/11/29 11:33:19;;;;;;;50.63;23.57;;;9.70;99.90;;;;;;5110931;28;20262;-33
2022/11/29 11:36:06;;;;;;;55.77;24.60;;;9.70;99.90;;;;;;5111609;28;20404;-35
2022/11/29 11:38:55;;;;;;;56.20;25.20;;;9.70;99.90;;;;;;5110595;28;20488;-31
2022/11/29 11:44:28;;;;;;;55.63;24.43;;;9.70;99.90;;;;;;5110896;28;20677;-35
2022/11/29 11:46:55;;;;;;;57.77;26.03;;;9.80;99.90;;;;;;5111143;28;20413;-33
2022/11/29 11:49:35;;;;;;;57.40;26.90;;;9.80;99.90;;;;;;5110337;28;20406;-33
2022/11/29 11:52:04;;;;;;;56.50;26.80;;;9.80;99.90;;;;;;5111123;28;20414;-32
2022/11/29 11:54:31;;;;;;;54.87;27.23;;;9.70;99.90;;;;;;5110300;28;20460;-36
2022/11/29 11:56:56;;;;;;;58.77;28.33;;;9.80;99.90;;;;;;5110916;28;20500;-35
2022/11/29 11:59:25;;;;;;;57.93;26.70;;;9.70;99.90;;;;;;5110399;28;20548;-36
2022/11/29 12:01:51;;;;;;;67.37;29.37;;;9.80;99.90;;;;;;5110617;28;20176;-31
2022/11/29 12:04:33;;;;;;;62.57;28.63;;;9.80;99.90;;;;;;5108942;28;20426;-32
2022/11/29 12:07:01;;;;;;;62.47;29.50;;;9.80;99.90;;;;;;5111247;28;20421;-34
2022/11/29 12:09:39;;;;;;;67.57;29.13;;;9.80;99.90;;;;;;5110064;28;20834;-35
2022/11/29 12:12:16;;;;;;;65.67;28.90;;;9.80;99.90;;;;;;5110640;28;20788;-32
2022/11/29 12:14:49;;;;;;;67.83;29.27;;;9.80;99.90;;;;;;5110201;27;20823;-33
2022/11/29 12:17:24;;;;;;;61.37;29.60;;;9.80;99.90;;;;;;5125810;27;20570;-37
2022/11/29 12:20:25;;;;;;;63.40;29.93;;;9.80;99.90;;;;;;5130499;27;20412;-35
2022/11/29 12:23:13;;;;;;;67.07;29.67;;;9.80;99.90;;;;;;5130993;27;20903;-32
2022/11/29 12:25:41;;;;;;;64.23;31.67;;;9.80;99.90;;;;;;5089880;28;20418;-31
2022/11/29 12:28:15;;;;;;;74.03;28.47;;;9.70;99.90;;;;;;5089736;28;20763;-32
2022/11/29 12:31:18;;;;;;;69.93;30.17;;;9.70;99.90;;;;;;5089579;28;20448;-31
2022/11/29 12:34:17;;;;;;;75.87;29.50;;;9.70;99.90;;;;;;5088096;28;20546;-30
2022/11/29 12:36:45;;;;;;;80.73;29.77;;;9.70;99.90;;;;;;5088955;28;20422;-37
2022/11/29 12:39:45;;;;;;;78.73;30.47;;;9.80;99.90;;;;;;5089715;28;20414;-36
2022/11/29 12:42:40;;;;;;;70.07;26.17;;;9.70;99.90;;;;;;5089672;28;20858;-38
2022/11/29 12:45:29;;;;;;;75.33;29.00;;;9.70;99.90;;;;;;5089683;28;20410;-30
2022/11/29 12:48:07;;;;;;;74.17;31.50;;;9.70;99.90;;;;;;5089882;28;20784;-35
2022/11/29 12:50:45;;;;;;;83.73;29.80;;;9.70;99.90;;;;;;5089310;28;20413;-32
2022/11/29 12:53:41;;;;;;;84.40;33.60;;;9.70;99.90;;;;;;5089015;28;20727;-33
2022/11/29 12:56:25;;;;;;;59.20;28.00;;;9.70;99.90;;;;;;5089002;28;20768;-34
2022/11/29 12:59:01;;;;;;;76.70;27.50;;;9.70;99.90;;;;;;5088977;28;20411;-34
2022/11/29 13:02:01;;;;;;;72.53;30.63;;;9.70;99.90;;;;;;5089292;28;20491;-33
2022/11/29 13:05:02;;;;;;;72.07;29.37;;;9.70;99.90;;;;;;5088579;28;20430;-35
2022/11/29 13:07:48;;;;;;;86.30;30.90;;;9.90;99.90;;;;;;5016717;28;20425;-36
2022/11/29 13:10:27;;;;;;;82.83;31.03;;;9.70;99.90;;;;;;5088852;28;20442;-35
2022/11/29 13:12:56;;;;;;;75.17;27.90;;;9.80;99.90;;;;;;5088365;28;20406;-34
2022/11/29 13:15:43;;;;;;;67.93;28.77;;;9.70;99.90;;;;;;5089104;28;20526;-36
2022/11/29 13:18:42;;;;;;;63.60;27.97;;;9.70;99.90;;;;;;5088821;28;20501;-33
2022/11/29 13:21:17;;;;;;;69.83;28.60;;;9.80;99.90;;;;;;5088784;28;20403;-32
2022/11/29 13:23:54;;;;;;;71.93;28.80;;;9.70;99.90;;;;;;5095121;28;20796;-36
2022/11/29 13:26:22;;;;;;;58.67;27.07;;;9.70;99.90;;;;;;5109161;28;20413;-34
2022/11/29 13:28:50;;;;;;;65.97;27.20;;;9.80;99.90;;;;;;5108625;28;20421;-31
2022/11/29 13:31:21;;;;;;;67.63;29.40;;;9.70;99.90;;;;;;5109206;28;20414;-31
2022/11/29 13:34:00;;;;;;;55.63;24.57;;;9.70;99.90;;;;;;5106780;28;20519;-36